Griddlers

Vá diretamente à ID do puzzle

Selecione o puzzle por:
Resolvidos Question organizar por
Mostrar mais filtros >>>
puzzles por página
Página nº de 794
Resultado: 15866 de 15866
ID Descrição Autor Data Tamanho Pontos Popularidade Tempo Médio Resolvidos
180236 Scrooge notorioushat 24-11-2016 24x29x6 f-1 20.866 79,20% 0:17:51
180235 Ninja Gaiden: Ryu notorioushat 24-11-2016 40x29x6 f-1 24.534 76,59% 0:20:56
180234 Launchpad McQuack notorioushat 24-11-2016 23x40x6 f-1 28.233 77,00% 0:20:45
180233 Huey, Dewey & Louie notorioushat 24-11-2016 50x21x7 f-1 31.546 77,73% 0:24:05
180230 Hi Cartoon anat.mh 24-11-2016 35x35x6 f-1 81.171 78,39% 0:24:53
179561 Flamingo farfalla19 31-10-2016 26x30x8 f-1 28.721 86,65% 0:18:36
179559 Sweet Bunny farfalla19 31-10-2016 31x33x6 f-1 58.211 88,08% 0:34:57
179502 Pink Bear Care farfalla19 30-10-2016 27x32x8 f-1 18.318 81,46% 0:15:53
179499 Bow and Arrow gridmaster 30-10-2016 35x35x8 f-1 333.333 76,45% 0:30:28
179263 Minjae Lee, Blue Lip naija1 24-10-2016 30x40x4 t-1 33.074 80,39% 0:39:27
179209 Jam Nicky 20-10-2016 28x34x6 f-1 17.056 80,51% 0:16:39
179208 Duck Nicky 20-10-2016 40x25x8 f-1 42.079 85,32% 0:24:05
179097 Victini - Pokemon No. 494 heksje 16-10-2016 25x25x6 f-1 17.728 65,94% 0:14:58
179020 Car meszi 15-10-2016 40x15x5 f-1 9.022 78,86% 0:09:09
179017 Home Sweet Home meszi 15-10-2016 20x20x6 f-1 3.625 77,78% 0:12:46
179009 Spearow - Pokemon No. 021 xitvono 13-10-2016 35x35x6 f-1 65.993 72,97% 0:53:31
178869 Funny Snail danulko 05-10-2016 24x23x4 t-1 4.658 73,03% 0:08:08
178657 Penguin swietlica 27-09-2016 25x24x4 f-1 7.954 84,07% 0:09:35
178567 Greek Pattern zoon_tree 25-09-2016 25x25x4 f-1 17.866 78,12% 0:11:28
178521 Trumpet meszi 24-09-2016 34x13x4 f-1 8.909 75,00% 0:07:41
puzzles por página
Página nº de 794
Resultado: 15866 de 15866